createdAt,value
2019-03-04T00:05:36.412Z,70.5
2019-03-04T00:15:39.866Z,70.6
2019-03-04T00:25:43.271Z,70.7
2019-03-04T00:35:46.726Z,69
2019-03-04T00:45:50.159Z,69.1
2019-03-04T00:55:53.609Z,68.9
2019-03-04T01:05:57.060Z,69.4
2019-03-04T01:16:00.517Z,69.3
2019-03-04T01:26:03.958Z,69.4
2019-03-04T01:36:07.398Z,69.6
2019-03-04T01:46:10.811Z,68.3
2019-03-04T01:56:14.245Z,68.1
2019-03-04T02:06:17.718Z,68.4
2019-03-04T02:16:21.127Z,67.8
2019-03-04T02:26:24.552Z,67.8
2019-03-04T02:36:28.044Z,67.2
2019-03-04T02:46:31.455Z,67.4
2019-03-04T02:56:35.966Z,67.6
2019-03-04T03:06:39.451Z,67.5
2019-03-04T03:16:42.887Z,67.2
2019-03-04T03:26:46.334Z,65.7
2019-03-04T03:36:49.827Z,65.7
2019-03-04T03:46:53.288Z,64.9
2019-03-04T03:56:56.714Z,66.3
2019-03-04T04:07:00.145Z,66.9
2019-03-04T04:17:03.606Z,66.8
2019-03-04T04:27:07.048Z,66.8
2019-03-04T04:37:10.496Z,66.9
2019-03-04T04:47:13.960Z,67.1
2019-03-04T04:57:17.395Z,66.5
2019-03-04T05:07:20.822Z,66.2
2019-03-04T05:17:24.344Z,66.6
2019-03-04T05:27:27.812Z,66.1
2019-03-04T05:37:31.265Z,66.1
2019-03-04T05:47:34.727Z,66.9
2019-03-04T05:57:38.175Z,67.1
2019-03-04T06:07:41.632Z,67.2
2019-03-04T06:17:45.078Z,67.7
2019-03-04T06:27:48.484Z,68.2
2019-03-04T06:37:51.895Z,68.2
2019-03-04T06:47:55.331Z,67.5
2019-03-04T06:57:58.751Z,67.6
2019-03-04T07:08:02.215Z,65.6
2019-03-04T07:18:05.638Z,66.4
2019-03-04T07:28:09.091Z,66.5
2019-03-04T07:38:12.505Z,65.3
2019-03-04T07:48:15.934Z,65.3
2019-03-04T07:58:20.350Z,65.5
2019-03-04T08:08:23.796Z,65.5
2019-03-04T08:18:27.294Z,63.7
2019-03-04T08:28:30.732Z,62.2
2019-03-04T08:38:34.184Z,63.2
2019-03-04T08:48:37.633Z,64.1
2019-03-04T08:58:41.388Z,65.5
2019-03-04T09:08:44.824Z,68.3
2019-03-04T09:18:48.271Z,70.2
2019-03-04T09:28:51.723Z,76.4
2019-03-04T09:38:55.155Z,78.3
2019-03-04T09:48:58.623Z,80.5
2019-03-04T09:59:02.071Z,80.8
2019-03-04T10:09:05.523Z,81.3
2019-03-04T10:19:08.954Z,82.7
2019-03-04T10:29:12.376Z,83.4
2019-03-04T10:39:22.653Z,83.7
2019-03-04T10:49:26.155Z,80
2019-03-04T10:59:29.605Z,79.6
2019-03-04T11:09:33.029Z,75
2019-03-04T11:19:36.447Z,74.1
2019-03-04T11:29:40.104Z,72.3
2019-03-04T11:39:43.533Z,70.3
2019-03-04T11:49:46.942Z,68.5
2019-03-04T11:59:50.380Z,69
2019-03-04T12:09:53.832Z,68.3
2019-03-04T12:19:57.243Z,66.5
2019-03-04T12:30:01.154Z,66.9
2019-03-04T12:40:04.619Z,66.3
2019-03-04T12:50:08.083Z,65.7
2019-03-04T13:00:11.559Z,64.9
2019-03-04T13:10:14.970Z,64.6
2019-03-04T13:20:18.429Z,65.3
2019-03-04T13:30:21.869Z,66.3
2019-03-04T13:40:25.285Z,66.4
2019-03-04T13:50:28.747Z,66.1
2019-03-04T14:00:32.202Z,65.5
2019-03-04T14:10:35.899Z,63.6
2019-03-04T14:20:39.317Z,60.3
2019-03-04T14:30:42.779Z,57.5
2019-03-04T14:40:46.215Z,56.7
2019-03-04T14:50:49.619Z,60
2019-03-04T15:00:53.022Z,60.8
2019-03-04T15:10:56.474Z,59.2
2019-03-04T15:21:00.215Z,57.3
2019-03-04T15:31:03.668Z,55.7
2019-03-04T15:41:07.086Z,58.9
2019-03-04T15:51:10.504Z,59.4
2019-03-04T16:01:13.949Z,59.9
2019-03-04T16:11:17.408Z,59.7
2019-03-04T16:21:20.826Z,60.1
2019-03-04T16:31:24.273Z,60.1
2019-03-04T16:41:27.690Z,60.3
2019-03-04T16:51:31.118Z,59.7
2019-03-04T17:01:34.575Z,60.1
2019-03-04T17:11:38.047Z,63.5
2019-03-04T17:21:41.496Z,67.7
2019-03-04T17:31:44.911Z,66.8
2019-03-04T17:41:48.369Z,66.3
2019-03-04T17:51:51.832Z,66.5
2019-03-04T18:01:55.280Z,67.4
2019-03-04T18:11:58.725Z,69.4
2019-03-04T18:22:02.138Z,70.5
2019-03-04T18:32:05.609Z,72.2
2019-03-04T18:42:09.045Z,72.1
2019-03-04T18:52:12.444Z,71
2019-03-04T19:02:15.878Z,69.3
2019-03-04T19:12:19.287Z,66.5
2019-03-04T19:22:23.743Z,62.5
2019-03-04T19:32:27.155Z,62.2
2019-03-04T19:42:30.589Z,57.2
2019-03-04T19:52:34.017Z,55.7
2019-03-04T20:02:37.417Z,53
2019-03-04T20:12:40.829Z,52.4
2019-03-04T20:22:44.476Z,52.8
2019-03-04T20:32:47.918Z,51.2
2019-03-04T20:42:51.364Z,56.8
2019-03-04T20:52:54.813Z,73.7
2019-03-04T21:02:58.255Z,76.6
2019-03-04T21:13:01.732Z,74.9
2019-03-04T21:23:05.171Z,74.3
2019-03-04T21:33:08.618Z,73.9
2019-03-04T21:43:12.100Z,74
2019-03-04T21:53:15.560Z,73.2
2019-03-04T22:03:19.007Z,73.3
2019-03-04T22:13:22.489Z,75
2019-03-04T22:23:26.005Z,74.6
2019-03-04T22:33:29.462Z,75.3
2019-03-04T22:43:33.958Z,74.3
2019-03-04T22:53:37.434Z,73.3
2019-03-04T23:03:40.908Z,72.4
2019-03-04T23:13:44.351Z,72.4
2019-03-04T23:23:47.798Z,72.2
2019-03-04T23:33:51.221Z,72.7
2019-03-04T23:43:54.662Z,71.9
2019-03-04T23:53:58.114Z,72.2
